SBCG/CGR METAR and TAF weather

Enter ICAO airport designator
Station Type Date Time Source
SBCG METAR 2021/06/23 00:00 UTC NOAA

SBCG 230000Z 13003KT 9999 FEW045 BKN100 21/18 Q1018


Station Type Date Time Source
SBCG Decoded METAR 2021/06/23 00:00 UTC NOAA

Campo Grande Aeroporto , Brazil (SBCG) 20-28S 054-40W 567M
Jun 22, 2021 - 08:00 PM EDT / 2021.06.23 0000 UTC
Wind: from the SE (130 degrees) at 3 MPH (3 KT):0
Visibility: greater than 7 mile(s):0
Sky conditions: mostly cloudy
Temperature: 69 F (21 C)
Dew Point: 64 F (18 C)
Relative Humidity: 82%
Pressure (altimeter): 30.06 in. Hg (1018 hPa)
ob: SBCG 230000Z 13003KT 9999 FEW045 BKN100 21/18 Q1018
cycle: 0

Station Type Date Time Source
SBCG TAF 2021/06/23 00:00 UTC NOAA

TAF SBCG 222130Z 2300/2324 36002KT 9999 FEW035 TN17/2310Z TX29/2318Z
BECMG 2302/2304 15005KT
BECMG 2309/2311 12006KT
BECMG 2314/2316 06012KT
RMK PGM

Example: see airport list